Time,TemperatureF,DewpointF,PressureIn,WindDirection,WindDirectionDegrees,WindSpeedMPH,WindSpeedGustMPH,Humidity,HourlyPrecipIn,Conditions,Clouds,dailyrainin,SoftwareType,DateUTC
2014-04-21 00:07:00,55.7,52.0,29.79,South,179,0.0,0.0,88,0.00,,,0.00,weatherlink.com 1.10,2014-04-20 22:07:00,
2014-04-21 00:22:00,55.5,52.0,29.78,South,179,0.0,0.0,89,0.00,,,0.00,weatherlink.com 1.10,2014-04-20 22:22:00,
2014-04-21 00:37:00,54.5,51.0,29.77,ENE,65,0.0,1.0,88,0.00,,,0.00,weatherlink.com 1.10,2014-04-20 22:37:00,
2014-04-21 00:52:00,54.2,51.0,29.77,ENE,65,0.0,0.0,90,0.00,,,0.00,weatherlink.com 1.10,2014-04-20 22:52:00,
2014-04-21 01:07:00,54.2,52.0,29.77,ENE,65,0.0,0.0,91,0.00,,,0.00,weatherlink.com 1.10,2014-04-20 23:07:00,
2014-04-21 01:22:00,53.9,51.0,29.76,SSE,158,0.0,0.0,91,0.00,,,0.00,weatherlink.com 1.10,2014-04-20 23:22:00,
2014-04-21 01:37:00,53.8,52.0,29.77,SSE,158,0.0,0.0,92,0.00,,,0.00,weatherlink.com 1.10,2014-04-20 23:37:00,
2014-04-21 01:52:00,53.8,52.0,29.77,SSE,158,0.0,0.0,92,0.00,,,0.00,weatherlink.com 1.10,2014-04-20 23:52:00,
2014-04-21 02:07:00,53.5,51.0,29.76,ENE,72,0.0,1.0,92,0.00,,,0.00,weatherlink.com 1.10,2014-04-21 00:07:00,
2014-04-21 02:22:00,53.3,51.0,29.76,ENE,72,0.0,0.0,93,0.00,,,0.00,weatherlink.com 1.10,2014-04-21 00:22:00,
2014-04-21 02:37:00,53.1,51.0,29.76,ENE,72,0.0,0.0,93,0.00,,,0.00,weatherlink.com 1.10,2014-04-21 00:37:00,
2014-04-21 02:52:00,52.6,51.0,29.75,ENE,72,0.0,0.0,93,0.00,,,0.00,weatherlink.com 1.10,2014-04-21 00:52:00,
2014-04-21 03:07:00,52.0,50.0,29.74,ENE,74,0.0,0.0,92,0.00,,,0.00,weatherlink.com 1.10,2014-04-21 01:07:00,
2014-04-21 03:23:00,52.3,50.0,29.74,NE,41,0.0,1.0,93,0.00,,,0.00,weatherlink.com 1.10,2014-04-21 01:23:00,
2014-04-21 03:38:00,52.5,50.0,29.73,NE,56,0.0,0.0,92,0.00,,,0.00,weatherlink.com 1.10,2014-04-21 01:38:00,
2014-04-21 03:53:00,52.6,50.0,29.72,NE,56,0.0,0.0,91,0.00,,,0.00,weatherlink.com 1.10,2014-04-21 01:53:00,
2014-04-21 04:08:00,52.7,50.0,29.72,NE,56,0.0,2.0,91,0.00,,,0.00,weatherlink.com 1.10,2014-04-21 02:08:00,
2014-04-21 04:23:00,52.7,50.0,29.72,NE,56,0.0,0.0,90,0.00,,,0.00,weatherlink.com 1.10,2014-04-21 02:23:00,
2014-04-21 04:38:00,52.8,50.0,29.71,NE,56,0.0,1.0,90,0.00,,,0.00,weatherlink.com 1.10,2014-04-21 02:38:00,
2014-04-21 04:53:00,52.7,50.0,29.71,NE,56,0.0,0.0,89,0.00,,,0.00,weatherlink.com 1.10,2014-04-21 02:53:00,
2014-04-21 05:08:00,52.2,49.0,29.70,SE,137,0.0,0.0,90,0.00,,,0.00,weatherlink.com 1.10,2014-04-21 03:08:00,
2014-04-21 05:23:00,51.8,49.0,29.70,SE,146,0.0,0.0,90,0.00,,,0.00,weatherlink.com 1.10,2014-04-21 03:23:00,
2014-04-21 05:38:00,52.1,50.0,29.71,NE,50,0.0,1.0,91,0.00,,,0.00,weatherlink.com 1.10,2014-04-21 03:38:00,
2014-04-21 05:53:00,52.4,50.0,29.71,NE,54,0.0,1.0,91,0.00,,,0.00,weatherlink.com 1.10,2014-04-21 03:53:00,
2014-04-21 06:08:00,52.5,50.0,29.72,ENE,70,0.0,0.0,90,0.00,,,0.00,weatherlink.com 1.10,2014-04-21 04:08:00,
2014-04-21 06:23:00,52.4,50.0,29.72,NE,50,0.0,0.0,90,0.00,,,0.00,weatherlink.com 1.10,2014-04-21 04:23:00,
2014-04-21 06:38:00,52.1,49.0,29.73,NE,50,0.0,0.0,90,0.00,,,0.00,weatherlink.com 1.10,2014-04-21 04:38:00,
2014-04-21 06:53:00,51.8,49.0,29.73,NE,51,0.0,0.0,90,0.00,,,0.00,weatherlink.com 1.10,2014-04-21 04:53:00,
2014-04-21 07:08:00,51.3,49.0,29.73,ENE,68,0.0,0.0,91,0.00,,,0.00,weatherlink.com 1.10,2014-04-21 05:08:00,
2014-04-21 07:23:00,51.2,49.0,29.72,ENE,68,0.0,0.0,91,0.00,,,0.00,weatherlink.com 1.10,2014-04-21 05:23:00,
2014-04-21 07:38:00,51.6,49.0,29.73,ENE,68,0.0,0.0,92,0.00,,,0.00,weatherlink.com 1.10,2014-04-21 05:38:00,
2014-04-21 07:53:00,52.3,50.0,29.73,ENE,64,0.0,0.0,92,0.00,,,0.00,weatherlink.com 1.10,2014-04-21 05:53:00,
2014-04-21 08:08:00,53.4,51.0,29.73,NE,48,0.0,0.0,90,0.00,,,0.00,weatherlink.com 1.10,2014-04-21 06:08:00,
2014-04-21 08:23:00,54.2,51.0,29.73,ENE,63,0.0,0.0,88,0.00,,,0.00,weatherlink.com 1.10,2014-04-21 06:23:00,
2014-04-21 08:38:00,55.2,51.0,29.73,ENE,65,0.0,2.0,86,0.00,,,0.00,weatherlink.com 1.10,2014-04-21 06:38:00,
2014-04-21 08:53:00,55.9,51.0,29.73,ENE,63,0.0,3.0,84,0.00,,,0.00,weatherlink.com 1.10,2014-04-21 06:53:00,
2014-04-21 09:08:00,56.7,51.0,29.73,NE,48,0.0,2.0,82,0.00,,,0.00,weatherlink.com 1.10,2014-04-21 07:08:00,
2014-04-21 09:23:00,57.5,51.0,29.73,ENE,65,0.0,0.0,80,0.00,,,0.00,weatherlink.com 1.10,2014-04-21 07:23:00,
2014-04-21 09:38:00,58.5,52.0,29.73,NE,41,0.0,0.0,78,0.00,,,0.00,weatherlink.com 1.10,2014-04-21 07:38:00,
2014-04-21 09:53:00,59.7,49.0,29.73,NE,52,0.0,0.0,68,0.00,,,0.00,weatherlink.com 1.10,2014-04-21 07:53:00,
2014-04-21 10:08:00,60.7,48.0,29.74,NE,53,0.0,0.0,64,0.00,,,0.00,weatherlink.com 1.10,2014-04-21 08:08:00,
2014-04-21 10:23:00,61.7,48.0,29.74,ENE,75,0.0,0.0,62,0.00,,,0.00,weatherlink.com 1.10,2014-04-21 08:23:00,
2014-04-21 10:38:00,63.0,48.0,29.73,NE,55,0.0,0.0,58,0.00,,,0.00,weatherlink.com 1.10,2014-04-21 08:38:00,
2014-04-21 10:53:00,63.9,48.0,29.73,ENE,70,0.0,3.0,56,0.00,,,0.00,weatherlink.com 1.10,2014-04-21 08:53:00,
2014-04-21 11:09:00,64.2,48.0,29.73,NE,55,0.0,2.0,57,0.00,,,0.00,weatherlink.com 1.10,2014-04-21 09:09:00,
2014-04-21 11:24:00,64.5,49.0,29.72,NE,53,0.0,0.0,58,0.00,,,0.00,weatherlink.com 1.10,2014-04-21 09:24:00,
2014-04-21 11:39:00,65.2,49.0,29.72,NE,50,0.0,2.0,57,0.00,,,0.00,weatherlink.com 1.10,2014-04-21 09:39:00,